sensor_id;sensor_type;location;lat;lon;timestamp;temperature;humidity
6052;DHT22;3054;51.204;4.430;2022-08-14T00:01:13;27.88;33.66
6052;DHT22;3054;51.204;4.430;2022-08-14T00:03:40;27.85;33.81
6052;DHT22;3054;51.204;4.430;2022-08-14T00:06:07;27.80;33.98
6052;DHT22;3054;51.204;4.430;2022-08-14T00:08:34;27.79;34.04
6052;DHT22;3054;51.204;4.430;2022-08-14T00:11:01;27.72;34.20
6052;DHT22;3054;51.204;4.430;2022-08-14T00:13:28;27.70;34.28
6052;DHT22;3054;51.204;4.430;2022-08-14T00:15:58;27.68;34.36
6052;DHT22;3054;51.204;4.430;2022-08-14T00:18:26;27.65;34.50
6052;DHT22;3054;51.204;4.430;2022-08-14T00:20:55;27.64;34.57
6052;DHT22;3054;51.204;4.430;2022-08-14T00:23:22;27.63;34.62
6052;DHT22;3054;51.204;4.430;2022-08-14T00:25:52;27.52;34.82
6052;DHT22;3054;51.204;4.430;2022-08-14T00:28:20;27.47;34.92
6052;DHT22;3054;51.204;4.430;2022-08-14T00:30:52;27.44;35.08
6052;DHT22;3054;51.204;4.430;2022-08-14T00:33:24;27.44;35.10
6052;DHT22;3054;51.204;4.430;2022-08-14T00:35:51;27.40;35.20
6052;DHT22;3054;51.204;4.430;2022-08-14T00:38:19;27.39;35.28
6052;DHT22;3054;51.204;4.430;2022-08-14T00:40:46;27.36;35.37
6052;DHT22;3054;51.204;4.430;2022-08-14T00:43:13;27.34;35.47
6052;DHT22;3054;51.204;4.430;2022-08-14T00:45:40;27.29;35.56
6052;DHT22;3054;51.204;4.430;2022-08-14T00:48:07;27.24;35.70
6052;DHT22;3054;51.204;4.430;2022-08-14T00:50:36;27.19;35.85
6052;DHT22;3054;51.204;4.430;2022-08-14T00:53:04;27.19;35.84
6052;DHT22;3054;51.204;4.430;2022-08-14T00:55:34;27.13;36.04
6052;DHT22;3054;51.204;4.430;2022-08-14T00:58:01;27.11;36.08
6052;DHT22;3054;51.204;4.430;2022-08-14T01:00:46;27.11;36.11
6052;DHT22;3054;51.204;4.430;2022-08-14T01:03:16;27.11;36.18
6052;DHT22;3054;51.204;4.430;2022-08-14T01:05:45;27.10;36.26
6052;DHT22;3054;51.204;4.430;2022-08-14T01:08:17;27.02;36.42
6052;DHT22;3054;51.204;4.430;2022-08-14T01:10:44;27.01;36.47
6052;DHT22;3054;51.204;4.430;2022-08-14T01:13:20;26.97;36.59
6052;DHT22;3054;51.204;4.430;2022-08-14T01:15:50;26.98;36.62
6052;DHT22;3054;51.204;4.430;2022-08-14T01:18:18;26.92;36.72
6052;DHT22;3054;51.204;4.430;2022-08-14T01:21:06;26.87;36.85
6052;DHT22;3054;51.204;4.430;2022-08-14T01:23:38;26.82;37.01
6052;DHT22;3054;51.204;4.430;2022-08-14T01:26:06;26.80;37.11
6052;DHT22;3054;51.204;4.430;2022-08-14T01:28:34;26.79;37.18
6052;DHT22;3054;51.204;4.430;2022-08-14T01:31:04;26.76;37.27
6052;DHT22;3054;51.204;4.430;2022-08-14T01:33:34;26.78;37.36
6052;DHT22;3054;51.204;4.430;2022-08-14T01:36:06;26.77;37.48
6052;DHT22;3054;51.204;4.430;2022-08-14T01:38:36;26.73;37.55
6052;DHT22;3054;51.204;4.430;2022-08-14T01:41:05;26.75;37.62
6052;DHT22;3054;51.204;4.430;2022-08-14T01:43:40;26.72;37.72
6052;DHT22;3054;51.204;4.430;2022-08-14T01:46:08;26.67;37.88
6052;DHT22;3054;51.204;4.430;2022-08-14T01:48:37;26.64;37.96
6052;DHT22;3054;51.204;4.430;2022-08-14T01:51:05;26.61;38.11
6052;DHT22;3054;51.204;4.430;2022-08-14T01:53:32;26.56;38.27
6052;DHT22;3054;51.204;4.430;2022-08-14T01:56:03;26.52;38.43
6052;DHT22;3054;51.204;4.430;2022-08-14T01:58:30;26.52;38.53
6052;DHT22;3054;51.204;4.430;2022-08-14T02:00:57;26.46;38.72
6052;DHT22;3054;51.204;4.430;2022-08-14T02:03:27;26.45;38.82
6052;DHT22;3054;51.204;4.430;2022-08-14T02:06:03;26.40;38.96
6052;DHT22;3054;51.204;4.430;2022-08-14T02:08:30;26.39;38.99
6052;DHT22;3054;51.204;4.430;2022-08-14T02:10:57;26.36;39.15
6052;DHT22;3054;51.204;4.430;2022-08-14T02:13:46;26.32;39.25
6052;DHT22;3054;51.204;4.430;2022-08-14T02:16:16;26.27;39.33
6052;DHT22;3054;51.204;4.430;2022-08-14T02:18:43;26.22;39.43
6052;DHT22;3054;51.204;4.430;2022-08-14T02:21:10;26.20;39.52
6052;DHT22;3054;51.204;4.430;2022-08-14T02:23:38;26.16;39.61
6052;DHT22;3054;51.204;4.430;2022-08-14T02:26:14;26.08;39.76
6052;DHT22;3054;51.204;4.430;2022-08-14T02:28:42;26.04;39.85
6052;DHT22;3054;51.204;4.430;2022-08-14T02:31:11;25.99;39.98
6052;DHT22;3054;51.204;4.430;2022-08-14T02:33:38;25.98;40.06
6052;DHT22;3054;51.204;4.430;2022-08-14T02:36:10;25.96;40.13
6052;DHT22;3054;51.204;4.430;2022-08-14T02:38:38;25.96;40.25
6052;DHT22;3054;51.204;4.430;2022-08-14T02:41:08;25.95;40.37
6052;DHT22;3054;51.204;4.430;2022-08-14T02:43:36;25.95;40.42
6052;DHT22;3054;51.204;4.430;2022-08-14T02:46:05;25.97;40.52
6052;DHT22;3054;51.204;4.430;2022-08-14T02:48:35;25.95;40.65
6052;DHT22;3054;51.204;4.430;2022-08-14T02:51:06;25.89;40.76
6052;DHT22;3054;51.204;4.430;2022-08-14T02:53:33;25.82;40.85
6052;DHT22;3054;51.204;4.430;2022-08-14T02:56:00;25.83;40.98
6052;DHT22;3054;51.204;4.430;2022-08-14T02:58:29;25.79;41.07
6052;DHT22;3054;51.204;4.430;2022-08-14T03:00:57;25.77;41.12
6052;DHT22;3054;51.204;4.430;2022-08-14T03:03:23;25.75;41.20
6052;DHT22;3054;51.204;4.430;2022-08-14T03:05:53;25.67;41.33
6052;DHT22;3054;51.204;4.430;2022-08-14T03:08:20;25.64;41.45
6052;DHT22;3054;51.204;4.430;2022-08-14T03:10:47;25.59;41.50
6052;DHT22;3054;51.204;4.430;2022-08-14T03:13:14;25.57;41.58
6052;DHT22;3054;51.204;4.430;2022-08-14T03:15:41;25.56;41.66
6052;DHT22;3054;51.204;4.430;2022-08-14T03:18:11;25.53;41.70
6052;DHT22;3054;51.204;4.430;2022-08-14T03:20:39;25.51;41.79
6052;DHT22;3054;51.204;4.430;2022-08-14T03:23:07;25.38;42.03
6052;DHT22;3054;51.204;4.430;2022-08-14T03:25:34;25.32;42.23
6052;DHT22;3054;51.204;4.430;2022-08-14T03:28:03;25.24;42.32
6052;DHT22;3054;51.204;4.430;2022-08-14T03:30:31;25.12;42.58
6052;DHT22;3054;51.204;4.430;2022-08-14T03:32:58;25.03;42.81
6052;DHT22;3054;51.204;4.430;2022-08-14T03:35:26;24.93;43.01
6052;DHT22;3054;51.204;4.430;2022-08-14T03:37:54;24.90;43.22
6052;DHT22;3054;51.204;4.430;2022-08-14T03:40:23;24.94;43.19
6052;DHT22;3054;51.204;4.430;2022-08-14T03:42:50;24.95;43.17
6052;DHT22;3054;51.204;4.430;2022-08-14T03:45:17;24.97;43.24
6052;DHT22;3054;51.204;4.430;2022-08-14T03:47:44;24.94;43.31
6052;DHT22;3054;51.204;4.430;2022-08-14T03:50:11;24.94;43.34
6052;DHT22;3054;51.204;4.430;2022-08-14T03:52:39;24.90;43.49
6052;DHT22;3054;51.204;4.430;2022-08-14T03:55:09;24.84;43.58
6052;DHT22;3054;51.204;4.430;2022-08-14T03:57:39;24.84;43.69
6052;DHT22;3054;51.204;4.430;2022-08-14T04:00:09;24.76;43.84
6052;DHT22;3054;51.204;4.430;2022-08-14T04:02:38;24.78;43.81
6052;DHT22;3054;51.204;4.430;2022-08-14T04:05:07;24.79;43.84
6052;DHT22;3054;51.204;4.430;2022-08-14T04:07:35;24.73;43.96
6052;DHT22;3054;51.204;4.430;2022-08-14T04:10:04;24.66;44.13
6052;DHT22;3054;51.204;4.430;2022-08-14T04:12:31;24.69;44.13
6052;DHT22;3054;51.204;4.430;2022-08-14T04:15:00;24.70;44.19
6052;DHT22;3054;51.204;4.430;2022-08-14T04:17:26;24.74;44.12
6052;DHT22;3054;51.204;4.430;2022-08-14T04:19:54;24.74;44.09
6052;DHT22;3054;51.204;4.430;2022-08-14T04:22:21;24.73;44.09
6052;DHT22;3054;51.204;4.430;2022-08-14T04:24:49;24.73;44.12
6052;DHT22;3054;51.204;4.430;2022-08-14T04:27:17;24.75;44.16
6052;DHT22;3054;51.204;4.430;2022-08-14T04:29:44;24.73;44.15
6052;DHT22;3054;51.204;4.430;2022-08-14T04:32:12;24.73;44.16
6052;DHT22;3054;51.204;4.430;2022-08-14T04:34:39;24.72;44.14
6052;DHT22;3054;51.204;4.430;2022-08-14T04:37:07;24.72;44.11
6052;DHT22;3054;51.204;4.430;2022-08-14T04:39:53;24.69;44.13
6052;DHT22;3054;51.204;4.430;2022-08-14T04:42:38;24.68;44.13
6052;DHT22;3054;51.204;4.430;2022-08-14T04:45:23;24.69;44.18
6052;DHT22;3054;51.204;4.430;2022-08-14T04:48:04;24.73;44.09
6052;DHT22;3054;51.204;4.430;2022-08-14T04:50:42;24.71;44.09
6052;DHT22;3054;51.204;4.430;2022-08-14T04:53:12;24.66;44.15
6052;DHT22;3054;51.204;4.430;2022-08-14T04:55:40;24.64;44.15
6052;DHT22;3054;51.204;4.430;2022-08-14T04:58:07;24.61;44.22
6052;DHT22;3054;51.204;4.430;2022-08-14T05:00:35;24.60;44.19
6052;DHT22;3054;51.204;4.430;2022-08-14T05:03:06;24.60;44.18
6052;DHT22;3054;51.204;4.430;2022-08-14T05:05:33;24.59;44.23
6052;DHT22;3054;51.204;4.430;2022-08-14T05:08:07;24.58;44.33
6052;DHT22;3054;51.204;4.430;2022-08-14T05:10:39;24.60;44.31
6052;DHT22;3054;51.204;4.430;2022-08-14T05:13:06;24.56;44.34
6052;DHT22;3054;51.204;4.430;2022-08-14T05:15:34;24.48;44.49
6052;DHT22;3054;51.204;4.430;2022-08-14T05:18:06;24.48;44.51
6052;DHT22;3054;51.204;4.430;2022-08-14T05:20:35;24.48;44.42
6052;DHT22;3054;51.204;4.430;2022-08-14T05:23:02;24.54;44.26
6052;DHT22;3054;51.204;4.430;2022-08-14T05:25:29;24.63;44.09
6052;DHT22;3054;51.204;4.430;2022-08-14T05:27:56;24.70;43.93
6052;DHT22;3054;51.204;4.430;2022-08-14T05:30:25;24.74;43.86
6052;DHT22;3054;51.204;4.430;2022-08-14T05:32:52;24.74;43.87
6052;DHT22;3054;51.204;4.430;2022-08-14T05:35:19;24.80;43.80
6052;DHT22;3054;51.204;4.430;2022-08-14T05:37:47;24.86;43.67
6052;DHT22;3054;51.204;4.430;2022-08-14T05:40:14;24.87;43.61
6052;DHT22;3054;51.204;4.430;2022-08-14T05:42:43;24.86;43.60
6052;DHT22;3054;51.204;4.430;2022-08-14T05:45:11;24.87;43.56
6052;DHT22;3054;51.204;4.430;2022-08-14T05:47:40;24.88;43.53
6052;DHT22;3054;51.204;4.430;2022-08-14T05:50:11;24.88;43.52
6052;DHT22;3054;51.204;4.430;2022-08-14T05:52:38;24.93;43.44
6052;DHT22;3054;51.204;4.430;2022-08-14T05:55:08;25.00;43.29
6052;DHT22;3054;51.204;4.430;2022-08-14T05:57:46;25.12;43.14
6052;DHT22;3054;51.204;4.430;2022-08-14T06:00:17;25.28;42.89
6052;DHT22;3054;51.204;4.430;2022-08-14T06:02:44;25.46;42.56
6052;DHT22;3054;51.204;4.430;2022-08-14T06:05:11;25.54;42.38
6052;DHT22;3054;51.204;4.430;2022-08-14T06:07:39;25.58;42.22
6052;DHT22;3054;51.204;4.430;2022-08-14T06:10:08;25.59;42.14
6052;DHT22;3054;51.204;4.430;2022-08-14T06:12:36;25.67;42.03
6052;DHT22;3054;51.204;4.430;2022-08-14T06:15:03;25.69;41.87
6052;DHT22;3054;51.204;4.430;2022-08-14T06:17:31;25.81;41.64
6052;DHT22;3054;51.204;4.430;2022-08-14T06:19:58;25.88;41.45
6052;DHT22;3054;51.204;4.430;2022-08-14T06:22:25;25.98;41.24
6052;DHT22;3054;51.204;4.430;2022-08-14T06:24:52;26.11;41.04
6052;DHT22;3054;51.204;4.430;2022-08-14T06:27:20;26.30;40.75
6052;DHT22;3054;51.204;4.430;2022-08-14T06:29:47;26.43;40.55
6052;DHT22;3054;51.204;4.430;2022-08-14T06:32:14;26.57;40.33
6052;DHT22;3054;51.204;4.430;2022-08-14T06:34:41;26.71;40.04
6052;DHT22;3054;51.204;4.430;2022-08-14T06:37:08;26.83;39.75
6052;DHT22;3054;51.204;4.430;2022-08-14T06:39:35;26.92;39.55
6052;DHT22;3054;51.204;4.430;2022-08-14T06:42:02;27.08;39.33
6052;DHT22;3054;51.204;4.430;2022-08-14T06:44:30;27.22;39.13
6052;DHT22;3054;51.204;4.430;2022-08-14T06:46:57;27.39;38.85
6052;DHT22;3054;51.204;4.430;2022-08-14T06:49:25;27.46;38.60
6052;DHT22;3054;51.204;4.430;2022-08-14T06:51:52;27.49;38.39
6052;DHT22;3054;51.204;4.430;2022-08-14T06:54:18;27.54;38.23
6052;DHT22;3054;51.204;4.430;2022-08-14T06:56:45;27.64;38.14
6052;DHT22;3054;51.204;4.430;2022-08-14T06:59:13;27.78;37.91
6052;DHT22;3054;51.204;4.430;2022-08-14T07:01:42;27.86;37.67
6052;DHT22;3054;51.204;4.430;2022-08-14T07:04:26;28.00;37.43
6052;DHT22;3054;51.204;4.430;2022-08-14T07:07:10;28.14;37.19
6052;DHT22;3054;51.204;4.430;2022-08-14T07:09:37;28.24;36.96
6052;DHT22;3054;51.204;4.430;2022-08-14T07:12:04;28.32;36.81
6052;DHT22;3054;51.204;4.430;2022-08-14T07:14:31;28.32;36.67
6052;DHT22;3054;51.204;4.430;2022-08-14T07:16:59;28.35;36.65
6052;DHT22;3054;51.204;4.430;2022-08-14T07:19:26;28.53;36.48
6052;DHT22;3054;51.204;4.430;2022-08-14T07:21:53;28.67;36.32
6052;DHT22;3054;51.204;4.430;2022-08-14T07:24:21;28.76;36.24
6052;DHT22;3054;51.204;4.430;2022-08-14T07:26:48;28.87;36.11
6052;DHT22;3054;51.204;4.430;2022-08-14T07:29:15;28.99;35.98
6052;DHT22;3054;51.204;4.430;2022-08-14T07:31:42;29.07;35.91
6052;DHT22;3054;51.204;4.430;2022-08-14T07:34:10;29.21;35.79
6052;DHT22;3054;51.204;4.430;2022-08-14T07:36:37;29.43;35.39
6052;DHT22;3054;51.204;4.430;2022-08-14T07:39:04;29.60;34.84
6052;DHT22;3054;51.204;4.430;2022-08-14T07:41:31;29.68;34.06
6052;DHT22;3054;51.204;4.430;2022-08-14T07:43:57;29.77;33.60
6052;DHT22;3054;51.204;4.430;2022-08-14T07:46:24;29.89;33.19
6052;DHT22;3054;51.204;4.430;2022-08-14T07:48:51;30.10;32.82
6052;DHT22;3054;51.204;4.430;2022-08-14T07:51:19;30.37;32.31
6052;DHT22;3054;51.204;4.430;2022-08-14T07:53:47;30.44;31.93
6052;DHT22;3054;51.204;4.430;2022-08-14T07:56:15;30.62;31.67
6052;DHT22;3054;51.204;4.430;2022-08-14T07:58:42;30.84;31.41
6052;DHT22;3054;51.204;4.430;2022-08-14T08:01:11;31.06;31.09
6052;DHT22;3054;51.204;4.430;2022-08-14T08:03:40;31.15;30.80
6052;DHT22;3054;51.204;4.430;2022-08-14T08:06:08;31.06;30.79
6052;DHT22;3054;51.204;4.430;2022-08-14T08:08:36;31.01;30.93
6052;DHT22;3054;51.204;4.430;2022-08-14T08:11:04;30.98;30.93
6052;DHT22;3054;51.204;4.430;2022-08-14T08:13:32;31.00;30.81
6052;DHT22;3054;51.204;4.430;2022-08-14T08:16:00;31.09;30.71
6052;DHT22;3054;51.204;4.430;2022-08-14T08:18:28;31.28;30.53
6052;DHT22;3054;51.204;4.430;2022-08-14T08:20:55;31.52;30.28
6052;DHT22;3054;51.204;4.430;2022-08-14T08:23:23;31.71;29.97
6052;DHT22;3054;51.204;4.430;2022-08-14T08:25:52;31.88;29.82
6052;DHT22;3054;51.204;4.430;2022-08-14T08:28:20;32.11;29.55
6052;DHT22;3054;51.204;4.430;2022-08-14T08:30:49;32.26;29.42
6052;DHT22;3054;51.204;4.430;2022-08-14T08:33:17;32.52;29.19
6052;DHT22;3054;51.204;4.430;2022-08-14T08:35:45;32.60;28.97
6052;DHT22;3054;51.204;4.430;2022-08-14T08:38:14;32.64;28.96
6052;DHT22;3054;51.204;4.430;2022-08-14T08:40:43;32.99;28.60
6052;DHT22;3054;51.204;4.430;2022-08-14T08:43:20;33.27;28.36
6052;DHT22;3054;51.204;4.430;2022-08-14T08:45:53;33.29;28.28
6052;DHT22;3054;51.204;4.430;2022-08-14T08:48:21;33.31;28.29
6052;DHT22;3054;51.204;4.430;2022-08-14T08:50:52;33.34;28.25
6052;DHT22;3054;51.204;4.430;2022-08-14T08:53:19;33.51;28.07
6052;DHT22;3054;51.204;4.430;2022-08-14T08:55:46;33.73;27.75
6052;DHT22;3054;51.204;4.430;2022-08-14T08:58:14;33.99;27.45
6052;DHT22;3054;51.204;4.430;2022-08-14T09:00:45;34.67;26.77
6052;DHT22;3054;51.204;4.430;2022-08-14T09:03:14;35.42;26.02
6052;DHT22;3054;51.204;4.430;2022-08-14T09:05:50;36.56;24.98
6052;DHT22;3054;51.204;4.430;2022-08-14T09:08:28;38.06;23.88
6052;DHT22;3054;51.204;4.430;2022-08-14T09:10:56;39.15;22.37
6052;DHT22;3054;51.204;4.430;2022-08-14T09:13:24;39.63;22.34
6052;DHT22;3054;51.204;4.430;2022-08-14T09:15:53;39.52;22.03
6052;DHT22;3054;51.204;4.430;2022-08-14T09:18:22;38.97;21.73
6052;DHT22;3054;51.204;4.430;2022-08-14T09:20:50;38.55;22.47
6052;DHT22;3054;51.204;4.430;2022-08-14T09:23:18;40.06;22.43
6052;DHT22;3054;51.204;4.430;2022-08-14T09:25:47;42.17;20.30
6052;DHT22;3054;51.204;4.430;2022-08-14T09:28:16;42.43;19.35
6052;DHT22;3054;51.204;4.430;2022-08-14T09:30:46;42.68;18.71
6052;DHT22;3054;51.204;4.430;2022-08-14T09:33:24;41.89;19.12
6052;DHT22;3054;51.204;4.430;2022-08-14T09:36:15;40.96;19.54
6052;DHT22;3054;51.204;4.430;2022-08-14T09:38:48;40.88;20.34
6052;DHT22;3054;51.204;4.430;2022-08-14T09:41:39;42.01;19.69
6052;DHT22;3054;51.204;4.430;2022-08-14T09:44:19;43.59;19.48
6052;DHT22;3054;51.204;4.430;2022-08-14T09:46:54;46.74;17.53
6052;DHT22;3054;51.204;4.430;2022-08-14T09:49:30;49.62;16.05
6052;DHT22;3054;51.204;4.430;2022-08-14T09:52:07;51.42;14.17
6052;DHT22;3054;51.204;4.430;2022-08-14T09:54:39;52.88;13.84
6052;DHT22;3054;51.204;4.430;2022-08-14T09:57:08;53.79;13.07
6052;DHT22;3054;51.204;4.430;2022-08-14T09:59:40;55.00;12.23
6052;DHT22;3054;51.204;4.430;2022-08-14T10:02:20;55.52;12.04
6052;DHT22;3054;51.204;4.430;2022-08-14T10:05:00;56.78;11.42
6052;DHT22;3054;51.204;4.430;2022-08-14T10:07:31;57.25;10.87
6052;DHT22;3054;51.204;4.430;2022-08-14T10:09:59;58.28;10.36
6052;DHT22;3054;51.204;4.430;2022-08-14T10:12:41;59.18;9.75
6052;DHT22;3054;51.204;4.430;2022-08-14T10:15:19;59.44;9.01
6052;DHT22;3054;51.204;4.430;2022-08-14T10:17:47;59.45;9.08
6052;DHT22;3054;51.204;4.430;2022-08-14T10:20:16;59.69;8.80
6052;DHT22;3054;51.204;4.430;2022-08-14T10:22:47;59.86;8.56
6052;DHT22;3054;51.204;4.430;2022-08-14T10:25:15;59.74;8.18
6052;DHT22;3054;51.204;4.430;2022-08-14T10:27:44;60.05;8.05
6052;DHT22;3054;51.204;4.430;2022-08-14T10:30:16;60.01;7.75
6052;DHT22;3054;51.204;4.430;2022-08-14T10:32:45;60.42;7.64
6052;DHT22;3054;51.204;4.430;2022-08-14T10:35:14;60.69;7.73
6052;DHT22;3054;51.204;4.430;2022-08-14T10:37:45;60.44;7.21
6052;DHT22;3054;51.204;4.430;2022-08-14T10:40:15;59.32;7.26
6052;DHT22;3054;51.204;4.430;2022-08-14T10:42:42;58.61;6.31
6052;DHT22;3054;51.204;4.430;2022-08-14T10:45:20;55.99;5.96
6052;DHT22;3054;51.204;4.430;2022-08-14T10:47:48;54.04;6.50
6052;DHT22;3054;51.204;4.430;2022-08-14T10:50:16;52.57;7.05
6052;DHT22;3054;51.204;4.430;2022-08-14T10:52:44;51.00;7.65
6052;DHT22;3054;51.204;4.430;2022-08-14T10:55:15;49.55;8.08
6052;DHT22;3054;51.204;4.430;2022-08-14T10:57:48;48.56;8.47
6052;DHT22;3054;51.204;4.430;2022-08-14T11:00:18;47.57;8.80
6052;DHT22;3054;51.204;4.430;2022-08-14T11:02:56;46.91;9.05
6052;DHT22;3054;51.204;4.430;2022-08-14T11:05:24;46.14;9.55
6052;DHT22;3054;51.204;4.430;2022-08-14T11:07:58;45.70;9.77
6052;DHT22;3054;51.204;4.430;2022-08-14T11:10:39;45.21;10.13
6052;DHT22;3054;51.204;4.430;2022-08-14T11:13:06;44.70;10.56
6052;DHT22;3054;51.204;4.430;2022-08-14T11:15:34;44.58;10.65
6052;DHT22;3054;51.204;4.430;2022-08-14T11:18:03;44.41;10.71
6052;DHT22;3054;51.204;4.430;2022-08-14T11:20:30;44.23;10.80
6052;DHT22;3054;51.204;4.430;2022-08-14T11:23:00;43.83;11.07
6052;DHT22;3054;51.204;4.430;2022-08-14T11:25:29;43.83;11.17
6052;DHT22;3054;51.204;4.430;2022-08-14T11:27:58;44.15;11.20
6052;DHT22;3054;51.204;4.430;2022-08-14T11:30:27;45.51;11.23
6052;DHT22;3054;51.204;4.430;2022-08-14T11:32:56;48.07;10.81
6052;DHT22;3054;51.204;4.430;2022-08-14T11:35:24;49.85;9.92
6052;DHT22;3054;51.204;4.430;2022-08-14T11:37:52;51.21;9.16
6052;DHT22;3054;51.204;4.430;2022-08-14T11:40:23;53.14;8.72
6052;DHT22;3054;51.204;4.430;2022-08-14T11:42:52;54.66;8.44
6052;DHT22;3054;51.204;4.430;2022-08-14T11:45:20;56.40;7.52
6052;DHT22;3054;51.204;4.430;2022-08-14T11:47:48;57.24;6.94
6052;DHT22;3054;51.204;4.430;2022-08-14T11:50:17;57.42;6.77
6052;DHT22;3054;51.204;4.430;2022-08-14T11:52:44;58.32;6.80
6052;DHT22;3054;51.204;4.430;2022-08-14T11:55:12;58.82;6.05
6052;DHT22;3054;51.204;4.430;2022-08-14T11:57:42;59.30;6.23
6052;DHT22;3054;51.204;4.430;2022-08-14T12:00:13;58.29;5.13
6052;DHT22;3054;51.204;4.430;2022-08-14T12:02:52;54.39;4.93
6052;DHT22;3054;51.204;4.430;2022-08-14T12:05:30;50.31;6.54
6052;DHT22;3054;51.204;4.430;2022-08-14T12:07:58;47.75;7.87
6052;DHT22;3054;51.204;4.430;2022-08-14T12:10:25;46.07;8.80
6052;DHT22;3054;51.204;4.430;2022-08-14T12:12:55;44.73;9.51
6052;DHT22;3054;51.204;4.430;2022-08-14T12:15:30;43.56;10.26
6052;DHT22;3054;51.204;4.430;2022-08-14T12:17:58;42.74;10.85
6052;DHT22;3054;51.204;4.430;2022-08-14T12:20:29;42.17;11.40
6052;DHT22;3054;51.204;4.430;2022-08-14T12:22:58;41.64;11.81
6052;DHT22;3054;51.204;4.430;2022-08-14T12:25:26;41.15;12.20
6052;DHT22;3054;51.204;4.430;2022-08-14T12:27:56;40.96;12.43
6052;DHT22;3054;51.204;4.430;2022-08-14T12:30:30;40.66;12.75
6052;DHT22;3054;51.204;4.430;2022-08-14T12:32:58;40.29;13.03
6052;DHT22;3054;51.204;4.430;2022-08-14T12:35:35;40.06;13.30
6052;DHT22;3054;51.204;4.430;2022-08-14T12:38:02;39.74;13.59
6052;DHT22;3054;51.204;4.430;2022-08-14T12:40:29;39.41;13.83
6052;DHT22;3054;51.204;4.430;2022-08-14T12:43:00;39.23;14.07
6052;DHT22;3054;51.204;4.430;2022-08-14T12:45:32;39.06;14.39
6052;DHT22;3054;51.204;4.430;2022-08-14T12:48:00;39.00;14.64
6052;DHT22;3054;51.204;4.430;2022-08-14T12:50:36;39.00;14.78
6052;DHT22;3054;51.204;4.430;2022-08-14T12:53:03;38.93;14.80
6052;DHT22;3054;51.204;4.430;2022-08-14T12:55:30;38.78;14.94
6052;DHT22;3054;51.204;4.430;2022-08-14T12:58:01;38.59;15.19
6052;DHT22;3054;51.204;4.430;2022-08-14T13:00:31;38.54;15.34
6052;DHT22;3054;51.204;4.430;2022-08-14T13:03:00;38.51;15.39
6052;DHT22;3054;51.204;4.430;2022-08-14T13:05:31;38.35;15.63
6052;DHT22;3054;51.204;4.430;2022-08-14T13:08:02;38.20;15.85
6052;DHT22;3054;51.204;4.430;2022-08-14T13:10:31;38.08;15.97
6052;DHT22;3054;51.204;4.430;2022-08-14T13:13:01;37.90;16.13
6052;DHT22;3054;51.204;4.430;2022-08-14T13:15:28;37.88;16.12
6052;DHT22;3054;51.204;4.430;2022-08-14T13:17:56;38.00;16.10
6052;DHT22;3054;51.204;4.430;2022-08-14T13:20:25;37.95;16.23
6052;DHT22;3054;51.204;4.430;2022-08-14T13:22:53;38.00;16.25
6052;DHT22;3054;51.204;4.430;2022-08-14T13:25:22;37.93;16.28
6052;DHT22;3054;51.204;4.430;2022-08-14T13:27:51;37.72;16.53
6052;DHT22;3054;51.204;4.430;2022-08-14T13:30:22;37.54;16.76
6052;DHT22;3054;51.204;4.430;2022-08-14T13:32:50;37.49;16.82
6052;DHT22;3054;51.204;4.430;2022-08-14T13:35:18;37.32;16.94
6052;DHT22;3054;51.204;4.430;2022-08-14T13:37:46;37.27;17.01
6052;DHT22;3054;51.204;4.430;2022-08-14T13:40:15;37.17;17.15
6052;DHT22;3054;51.204;4.430;2022-08-14T13:42:43;37.08;17.24
6052;DHT22;3054;51.204;4.430;2022-08-14T13:45:12;36.93;17.48
6052;DHT22;3054;51.204;4.430;2022-08-14T13:47:42;36.84;17.60
6052;DHT22;3054;51.204;4.430;2022-08-14T13:50:11;36.84;17.64
6052;DHT22;3054;51.204;4.430;2022-08-14T13:52:41;36.85;17.70
6052;DHT22;3054;51.204;4.430;2022-08-14T13:55:09;36.83;17.67
6052;DHT22;3054;51.204;4.430;2022-08-14T13:57:39;36.83;17.63
6052;DHT22;3054;51.204;4.430;2022-08-14T14:00:09;36.85;17.59
6052;DHT22;3054;51.204;4.430;2022-08-14T14:02:38;36.72;17.64
6052;DHT22;3054;51.204;4.430;2022-08-14T14:05:08;36.57;17.69
6052;DHT22;3054;51.204;4.430;2022-08-14T14:07:37;36.49;17.74
6052;DHT22;3054;51.204;4.430;2022-08-14T14:10:07;36.61;17.67
6052;DHT22;3054;51.204;4.430;2022-08-14T14:12:35;36.61;17.70
6052;DHT22;3054;51.204;4.430;2022-08-14T14:15:04;36.67;17.77
6052;DHT22;3054;51.204;4.430;2022-08-14T14:17:32;36.71;17.75
6052;DHT22;3054;51.204;4.430;2022-08-14T14:20:00;36.70;17.76
6052;DHT22;3054;51.204;4.430;2022-08-14T14:22:28;36.76;17.67
6052;DHT22;3054;51.204;4.430;2022-08-14T14:24:56;36.73;17.38
6052;DHT22;3054;51.204;4.430;2022-08-14T14:27:25;36.67;17.29
6052;DHT22;3054;51.204;4.430;2022-08-14T14:29:57;36.69;17.06
6052;DHT22;3054;51.204;4.430;2022-08-14T14:32:27;36.62;16.86
6052;DHT22;3054;51.204;4.430;2022-08-14T14:34:58;36.43;16.91
6052;DHT22;3054;51.204;4.430;2022-08-14T14:37:26;36.39;16.85
6052;DHT22;3054;51.204;4.430;2022-08-14T14:39:56;36.46;16.81
6052;DHT22;3054;51.204;4.430;2022-08-14T14:42:25;36.44;16.72
6052;DHT22;3054;51.204;4.430;2022-08-14T14:44:56;36.44;16.77
6052;DHT22;3054;51.204;4.430;2022-08-14T14:47:25;36.45;16.79
6052;DHT22;3054;51.204;4.430;2022-08-14T14:49:55;36.49;16.87
6052;DHT22;3054;51.204;4.430;2022-08-14T14:52:22;36.55;16.83
6052;DHT22;3054;51.204;4.430;2022-08-14T14:54:52;36.59;16.81
6052;DHT22;3054;51.204;4.430;2022-08-14T14:57:21;36.59;16.79
6052;DHT22;3054;51.204;4.430;2022-08-14T14:59:49;36.57;16.83
6052;DHT22;3054;51.204;4.430;2022-08-14T15:02:25;36.59;16.84
6052;DHT22;3054;51.204;4.430;2022-08-14T15:04:57;36.58;16.89
6052;DHT22;3054;51.204;4.430;2022-08-14T15:07:24;36.53;16.90
6052;DHT22;3054;51.204;4.430;2022-08-14T15:09:51;36.43;16.97
6052;DHT22;3054;51.204;4.430;2022-08-14T15:12:18;36.37;17.03
6052;DHT22;3054;51.204;4.430;2022-08-14T15:14:47;36.29;17.09
6052;DHT22;3054;51.204;4.430;2022-08-14T15:17:14;36.23;17.14
6052;DHT22;3054;51.204;4.430;2022-08-14T15:19:41;36.24;17.18
6052;DHT22;3054;51.204;4.430;2022-08-14T15:22:08;36.01;17.25
6052;DHT22;3054;51.204;4.430;2022-08-14T15:24:36;35.96;17.29
6052;DHT22;3054;51.204;4.430;2022-08-14T15:27:03;35.89;17.30
6052;DHT22;3054;51.204;4.430;2022-08-14T15:29:31;35.83;17.32
6052;DHT22;3054;51.204;4.430;2022-08-14T15:32:05;35.83;17.35
6052;DHT22;3054;51.204;4.430;2022-08-14T15:34:32;35.74;17.51
6052;DHT22;3054;51.204;4.430;2022-08-14T15:37:00;35.72;17.61
6052;DHT22;3054;51.204;4.430;2022-08-14T15:39:27;35.62;17.76
6052;DHT22;3054;51.204;4.430;2022-08-14T15:41:54;35.55;17.78
6052;DHT22;3054;51.204;4.430;2022-08-14T15:44:24;35.50;17.86
6052;DHT22;3054;51.204;4.430;2022-08-14T15:46:52;35.47;17.87
6052;DHT22;3054;51.204;4.430;2022-08-14T15:49:21;35.38;17.91
6052;DHT22;3054;51.204;4.430;2022-08-14T15:51:52;35.40;17.89
6052;DHT22;3054;51.204;4.430;2022-08-14T15:54:20;35.41;17.88
6052;DHT22;3054;51.204;4.430;2022-08-14T15:56:54;35.38;17.95
6052;DHT22;3054;51.204;4.430;2022-08-14T15:59:22;35.34;18.00
6052;DHT22;3054;51.204;4.430;2022-08-14T16:01:49;35.31;18.02
6052;DHT22;3054;51.204;4.430;2022-08-14T16:04:17;35.26;18.10
6052;DHT22;3054;51.204;4.430;2022-08-14T16:06:48;35.23;18.25
6052;DHT22;3054;51.204;4.430;2022-08-14T16:09:15;35.24;18.19
6052;DHT22;3054;51.204;4.430;2022-08-14T16:11:42;35.23;18.18
6052;DHT22;3054;51.204;4.430;2022-08-14T16:14:10;35.20;18.24
6052;DHT22;3054;51.204;4.430;2022-08-14T16:16:37;35.19;18.28